sensor_id;sensor_type;location;lat;lon;timestamp;temperature;humidity
14093;DHT22;7123;49.468;10.992;2022-11-20T00:01:28;4.00;99.90
14093;DHT22;7123;49.468;10.992;2022-11-20T00:03:56;4.00;99.90
14093;DHT22;7123;49.468;10.992;2022-11-20T00:06:25;4.00;99.90
14093;DHT22;7123;49.468;10.992;2022-11-20T00:08:57;4.00;99.90
14093;DHT22;7123;49.468;10.992;2022-11-20T00:11:26;4.00;99.90
14093;DHT22;7123;49.468;10.992;2022-11-20T00:13:55;4.00;99.90
14093;DHT22;7123;49.468;10.992;2022-11-20T00:16:24;4.00;99.90
14093;DHT22;7123;49.468;10.992;2022-11-20T00:18:52;4.00;99.90
14093;DHT22;7123;49.468;10.992;2022-11-20T00:21:24;4.00;99.90
14093;DHT22;7123;49.468;10.992;2022-11-20T00:23:53;4.00;99.90
14093;DHT22;7123;49.468;10.992;2022-11-20T00:26:22;4.00;99.90
14093;DHT22;7123;49.468;10.992;2022-11-20T00:28:51;4.00;99.90
14093;DHT22;7123;49.468;10.992;2022-11-20T00:31:18;4.00;99.90
14093;DHT22;7123;49.468;10.992;2022-11-20T00:33:45;4.10;99.90
14093;DHT22;7123;49.468;10.992;2022-11-20T00:36:17;4.00;99.90
14093;DHT22;7123;49.468;10.992;2022-11-20T00:38:45;4.00;99.90
14093;DHT22;7123;49.468;10.992;2022-11-20T00:41:14;4.10;99.90
14093;DHT22;7123;49.468;10.992;2022-11-20T00:43:42;4.00;99.90
14093;DHT22;7123;49.468;10.992;2022-11-20T00:46:12;4.00;99.90
14093;DHT22;7123;49.468;10.992;2022-11-20T00:48:39;4.00;99.90
14093;DHT22;7123;49.468;10.992;2022-11-20T00:51:06;4.00;99.90
14093;DHT22;7123;49.468;10.992;2022-11-20T00:53:33;4.00;99.90
14093;DHT22;7123;49.468;10.992;2022-11-20T00:56:05;4.00;99.90
14093;DHT22;7123;49.468;10.992;2022-11-20T00:58:34;4.00;99.90
14093;DHT22;7123;49.468;10.992;2022-11-20T01:01:07;4.00;99.90
14093;DHT22;7123;49.468;10.992;2022-11-20T01:03:36;4.00;99.90
14093;DHT22;7123;49.468;10.992;2022-11-20T01:06:06;4.00;99.90
14093;DHT22;7123;49.468;10.992;2022-11-20T01:08:35;4.00;99.90
14093;DHT22;7123;49.468;10.992;2022-11-20T01:11:04;4.00;99.90
14093;DHT22;7123;49.468;10.992;2022-11-20T01:13:31;4.10;99.90
14093;DHT22;7123;49.468;10.992;2022-11-20T01:16:08;4.00;99.90
14093;DHT22;7123;49.468;10.992;2022-11-20T01:18:37;4.10;99.90
14093;DHT22;7123;49.468;10.992;2022-11-20T01:21:15;4.00;99.90
14093;DHT22;7123;49.468;10.992;2022-11-20T01:23:43;4.10;99.90
14093;DHT22;7123;49.468;10.992;2022-11-20T01:26:15;4.10;99.90
14093;DHT22;7123;49.468;10.992;2022-11-20T01:28:42;4.10;99.90
14093;DHT22;7123;49.468;10.992;2022-11-20T01:31:20;4.10;99.90
14093;DHT22;7123;49.468;10.992;2022-11-20T01:33:50;4.00;99.90
14093;DHT22;7123;49.468;10.992;2022-11-20T01:36:19;4.10;99.90
14093;DHT22;7123;49.468;10.992;2022-11-20T01:38:46;4.00;99.90
14093;DHT22;7123;49.468;10.992;2022-11-20T01:41:14;4.10;99.90
14093;DHT22;7123;49.468;10.992;2022-11-20T01:44:02;4.10;99.90
14093;DHT22;7123;49.468;10.992;2022-11-20T01:46:28;4.10;99.90
14093;DHT22;7123;49.468;10.992;2022-11-20T01:52:00;4.00;99.90
14093;DHT22;7123;49.468;10.992;2022-11-20T01:54:35;4.00;99.90
14093;DHT22;7123;49.468;10.992;2022-11-20T01:57:06;4.00;99.90
14093;DHT22;7123;49.468;10.992;2022-11-20T01:59:37;4.00;99.90
14093;DHT22;7123;49.468;10.992;2022-11-20T02:02:05;4.00;99.90
14093;DHT22;7123;49.468;10.992;2022-11-20T02:04:32;4.00;99.90
14093;DHT22;7123;49.468;10.992;2022-11-20T02:07:02;4.00;99.90
14093;DHT22;7123;49.468;10.992;2022-11-20T02:09:30;4.00;99.90
14093;DHT22;7123;49.468;10.992;2022-11-20T02:11:57;4.00;99.90
14093;DHT22;7123;49.468;10.992;2022-11-20T02:14:25;4.00;99.90
14093;DHT22;7123;49.468;10.992;2022-11-20T02:16:53;4.00;99.90
14093;DHT22;7123;49.468;10.992;2022-11-20T02:19:30;4.00;99.90
14093;DHT22;7123;49.468;10.992;2022-11-20T02:24:30;4.00;99.90
14093;DHT22;7123;49.468;10.992;2022-11-20T02:27:07;4.00;99.90
14093;DHT22;7123;49.468;10.992;2022-11-20T02:29:39;4.00;99.90
14093;DHT22;7123;49.468;10.992;2022-11-20T02:32:10;4.00;99.90
14093;DHT22;7123;49.468;10.992;2022-11-20T02:34:43;4.00;99.90
14093;DHT22;7123;49.468;10.992;2022-11-20T02:37:10;4.00;99.90
14093;DHT22;7123;49.468;10.992;2022-11-20T02:39:37;4.10;99.90
14093;DHT22;7123;49.468;10.992;2022-11-20T02:42:03;4.10;99.90
14093;DHT22;7123;49.468;10.992;2022-11-20T02:44:30;4.10;99.90
14093;DHT22;7123;49.468;10.992;2022-11-20T02:46:58;4.10;99.90
14093;DHT22;7123;49.468;10.992;2022-11-20T02:49:25;4.10;99.90
14093;DHT22;7123;49.468;10.992;2022-11-20T02:51:52;4.10;99.90
14093;DHT22;7123;49.468;10.992;2022-11-20T02:54:18;4.00;99.90
14093;DHT22;7123;49.468;10.992;2022-11-20T02:56:45;4.10;99.90
14093;DHT22;7123;49.468;10.992;2022-11-20T02:59:11;4.00;99.90
14093;DHT22;7123;49.468;10.992;2022-11-20T03:01:38;4.10;99.90
14093;DHT22;7123;49.468;10.992;2022-11-20T03:04:05;4.00;99.90
14093;DHT22;7123;49.468;10.992;2022-11-20T03:06:32;4.00;99.90
14093;DHT22;7123;49.468;10.992;2022-11-20T03:08:58;4.00;99.90
14093;DHT22;7123;49.468;10.992;2022-11-20T03:11:25;4.00;99.90
14093;DHT22;7123;49.468;10.992;2022-11-20T03:13:52;4.00;99.90
14093;DHT22;7123;49.468;10.992;2022-11-20T03:16:20;4.00;99.90
14093;DHT22;7123;49.468;10.992;2022-11-20T03:18:48;4.10;99.90
14093;DHT22;7123;49.468;10.992;2022-11-20T03:21:15;4.20;99.90
14093;DHT22;7123;49.468;10.992;2022-11-20T03:23:42;4.00;99.90
14093;DHT22;7123;49.468;10.992;2022-11-20T03:26:15;4.00;99.90
14093;DHT22;7123;49.468;10.992;2022-11-20T03:28:47;4.00;99.90
14093;DHT22;7123;49.468;10.992;2022-11-20T03:31:16;3.90;99.90
14093;DHT22;7123;49.468;10.992;2022-11-20T03:33:43;3.90;99.90
14093;DHT22;7123;49.468;10.992;2022-11-20T03:36:14;3.90;99.90
14093;DHT22;7123;49.468;10.992;2022-11-20T03:38:41;3.90;99.90
14093;DHT22;7123;49.468;10.992;2022-11-20T03:41:11;3.90;99.90
14093;DHT22;7123;49.468;10.992;2022-11-20T03:43:38;3.90;99.90
14093;DHT22;7123;49.468;10.992;2022-11-20T03:46:06;3.90;99.90
14093;DHT22;7123;49.468;10.992;2022-11-20T03:48:33;3.90;99.90
14093;DHT22;7123;49.468;10.992;2022-11-20T03:51:07;3.90;99.90
14093;DHT22;7123;49.468;10.992;2022-11-20T03:53:34;3.90;99.90
14093;DHT22;7123;49.468;10.992;2022-11-20T03:56:01;3.90;99.90
14093;DHT22;7123;49.468;10.992;2022-11-20T03:58:28;3.90;99.90
14093;DHT22;7123;49.468;10.992;2022-11-20T04:00:54;3.90;99.90
14093;DHT22;7123;49.468;10.992;2022-11-20T04:03:21;3.90;99.90
14093;DHT22;7123;49.468;10.992;2022-11-20T04:05:48;3.90;99.90
14093;DHT22;7123;49.468;10.992;2022-11-20T04:08:14;3.90;99.90
14093;DHT22;7123;49.468;10.992;2022-11-20T04:10:41;3.90;99.90
14093;DHT22;7123;49.468;10.992;2022-11-20T04:13:07;3.90;99.90
14093;DHT22;7123;49.468;10.992;2022-11-20T04:15:34;4.00;99.90
14093;DHT22;7123;49.468;10.992;2022-11-20T04:18:04;4.00;99.90
14093;DHT22;7123;49.468;10.992;2022-11-20T04:20:30;3.90;99.90
14093;DHT22;7123;49.468;10.992;2022-11-20T04:22:57;3.90;99.90
14093;DHT22;7123;49.468;10.992;2022-11-20T04:25:23;4.00;99.90
14093;DHT22;7123;49.468;10.992;2022-11-20T04:27:50;4.00;99.90
14093;DHT22;7123;49.468;10.992;2022-11-20T04:30:17;4.00;99.90
14093;DHT22;7123;49.468;10.992;2022-11-20T04:32:43;4.00;99.90
14093;DHT22;7123;49.468;10.992;2022-11-20T04:35:10;4.00;99.90
14093;DHT22;7123;49.468;10.992;2022-11-20T04:37:37;4.00;99.90
14093;DHT22;7123;49.468;10.992;2022-11-20T04:40:04;4.00;99.90
14093;DHT22;7123;49.468;10.992;2022-11-20T04:42:30;4.00;99.90
14093;DHT22;7123;49.468;10.992;2022-11-20T04:44:57;3.90;99.90
14093;DHT22;7123;49.468;10.992;2022-11-20T04:47:24;3.90;99.90
14093;DHT22;7123;49.468;10.992;2022-11-20T04:49:51;3.90;99.90
14093;DHT22;7123;49.468;10.992;2022-11-20T04:52:17;3.90;99.90
14093;DHT22;7123;49.468;10.992;2022-11-20T04:54:44;4.00;99.90
14093;DHT22;7123;49.468;10.992;2022-11-20T04:57:12;4.00;99.90
14093;DHT22;7123;49.468;10.992;2022-11-20T04:59:40;4.00;99.90
14093;DHT22;7123;49.468;10.992;2022-11-20T05:02:07;4.00;99.90
14093;DHT22;7123;49.468;10.992;2022-11-20T05:04:33;4.00;99.90
14093;DHT22;7123;49.468;10.992;2022-11-20T05:07:00;3.90;99.90
14093;DHT22;7123;49.468;10.992;2022-11-20T05:09:27;3.90;99.90
14093;DHT22;7123;49.468;10.992;2022-11-20T05:11:53;3.90;99.90
14093;DHT22;7123;49.468;10.992;2022-11-20T05:14:20;3.90;99.90
14093;DHT22;7123;49.468;10.992;2022-11-20T05:16:47;3.80;99.90
14093;DHT22;7123;49.468;10.992;2022-11-20T05:19:13;3.90;99.90
14093;DHT22;7123;49.468;10.992;2022-11-20T05:21:40;3.90;99.90
14093;DHT22;7123;49.468;10.992;2022-11-20T05:24:07;3.90;99.90
14093;DHT22;7123;49.468;10.992;2022-11-20T05:26:33;3.90;99.90
14093;DHT22;7123;49.468;10.992;2022-11-20T05:29:00;3.90;99.90
14093;DHT22;7123;49.468;10.992;2022-11-20T05:31:27;3.90;99.90
14093;DHT22;7123;49.468;10.992;2022-11-20T05:33:55;3.90;99.90
14093;DHT22;7123;49.468;10.992;2022-11-20T05:36:22;3.90;99.90
14093;DHT22;7123;49.468;10.992;2022-11-20T05:38:49;3.90;99.90
14093;DHT22;7123;49.468;10.992;2022-11-20T05:41:19;3.90;99.90
14093;DHT22;7123;49.468;10.992;2022-11-20T05:43:47;4.00;99.90
14093;DHT22;7123;49.468;10.992;2022-11-20T05:46:17;3.90;99.90
14093;DHT22;7123;49.468;10.992;2022-11-20T05:48:50;4.00;99.90
14093;DHT22;7123;49.468;10.992;2022-11-20T05:51:18;4.00;99.90
14093;DHT22;7123;49.468;10.992;2022-11-20T05:53:46;4.00;99.90
14093;DHT22;7123;49.468;10.992;2022-11-20T05:56:16;3.90;99.90
14093;DHT22;7123;49.468;10.992;2022-11-20T05:58:44;3.90;99.90
14093;DHT22;7123;49.468;10.992;2022-11-20T06:03:42;3.90;99.90
14093;DHT22;7123;49.468;10.992;2022-11-20T06:06:10;3.90;99.90
14093;DHT22;7123;49.468;10.992;2022-11-20T06:08:36;3.90;99.90
14093;DHT22;7123;49.468;10.992;2022-11-20T06:11:11;3.90;99.90
14093;DHT22;7123;49.468;10.992;2022-11-20T06:13:39;4.00;99.90
14093;DHT22;7123;49.468;10.992;2022-11-20T06:16:08;3.90;99.90
14093;DHT22;7123;49.468;10.992;2022-11-20T06:18:35;3.90;99.90
14093;DHT22;7123;49.468;10.992;2022-11-20T06:21:07;3.90;99.90
14093;DHT22;7123;49.468;10.992;2022-11-20T06:23:35;3.90;99.90
14093;DHT22;7123;49.468;10.992;2022-11-20T06:26:10;3.90;99.90
14093;DHT22;7123;49.468;10.992;2022-11-20T06:28:37;3.90;99.90
14093;DHT22;7123;49.468;10.992;2022-11-20T06:31:05;3.90;99.90
14093;DHT22;7123;49.468;10.992;2022-11-20T06:33:32;3.90;99.90
14093;DHT22;7123;49.468;10.992;2022-11-20T06:36:00;3.90;99.90
14093;DHT22;7123;49.468;10.992;2022-11-20T06:38:34;3.90;99.90
14093;DHT22;7123;49.468;10.992;2022-11-20T06:41:01;3.90;99.90
14093;DHT22;7123;49.468;10.992;2022-11-20T06:43:28;3.90;99.90
14093;DHT22;7123;49.468;10.992;2022-11-20T06:45:56;3.90;99.90
14093;DHT22;7123;49.468;10.992;2022-11-20T06:48:24;3.90;99.90
14093;DHT22;7123;49.468;10.992;2022-11-20T06:50:51;3.90;99.90
14093;DHT22;7123;49.468;10.992;2022-11-20T06:53:18;4.00;99.90
14093;DHT22;7123;49.468;10.992;2022-11-20T06:55:46;4.00;99.90
14093;DHT22;7123;49.468;10.992;2022-11-20T06:58:14;4.00;99.90
14093;DHT22;7123;49.468;10.992;2022-11-20T07:00:41;4.00;99.90
14093;DHT22;7123;49.468;10.992;2022-11-20T07:03:10;4.00;99.90
14093;DHT22;7123;49.468;10.992;2022-11-20T07:05:38;4.00;99.90
14093;DHT22;7123;49.468;10.992;2022-11-20T07:08:05;4.00;99.90
14093;DHT22;7123;49.468;10.992;2022-11-20T07:10:32;4.00;99.90
14093;DHT22;7123;49.468;10.992;2022-11-20T07:12:59;4.00;99.90
14093;DHT22;7123;49.468;10.992;2022-11-20T07:15:26;4.00;99.90
14093;DHT22;7123;49.468;10.992;2022-11-20T07:17:53;4.00;99.90
14093;DHT22;7123;49.468;10.992;2022-11-20T07:20:19;4.00;99.90
14093;DHT22;7123;49.468;10.992;2022-11-20T07:22:46;4.00;99.90
14093;DHT22;7123;49.468;10.992;2022-11-20T07:25:13;4.00;99.90
14093;DHT22;7123;49.468;10.992;2022-11-20T07:27:39;4.00;99.90
14093;DHT22;7123;49.468;10.992;2022-11-20T07:30:06;4.00;99.90
14093;DHT22;7123;49.468;10.992;2022-11-20T07:32:33;4.00;99.90
14093;DHT22;7123;49.468;10.992;2022-11-20T07:35:00;4.00;99.90
14093;DHT22;7123;49.468;10.992;2022-11-20T07:37:26;4.00;99.90
14093;DHT22;7123;49.468;10.992;2022-11-20T07:39:53;4.10;99.90
14093;DHT22;7123;49.468;10.992;2022-11-20T07:42:19;4.10;99.90
14093;DHT22;7123;49.468;10.992;2022-11-20T07:44:46;4.10;99.90
14093;DHT22;7123;49.468;10.992;2022-11-20T07:47:13;4.10;99.90
14093;DHT22;7123;49.468;10.992;2022-11-20T07:49:39;4.10;99.90
14093;DHT22;7123;49.468;10.992;2022-11-20T07:52:06;4.10;99.90
14093;DHT22;7123;49.468;10.992;2022-11-20T07:54:32;4.10;99.90
14093;DHT22;7123;49.468;10.992;2022-11-20T07:56:59;4.10;99.90
14093;DHT22;7123;49.468;10.992;2022-11-20T07:59:26;4.20;99.90
14093;DHT22;7123;49.468;10.992;2022-11-20T08:01:52;4.20;99.90
14093;DHT22;7123;49.468;10.992;2022-11-20T08:04:19;4.20;99.90
14093;DHT22;7123;49.468;10.992;2022-11-20T08:06:46;4.20;99.90
14093;DHT22;7123;49.468;10.992;2022-11-20T08:09:12;4.20;99.90
14093;DHT22;7123;49.468;10.992;2022-11-20T08:11:39;4.20;99.90
14093;DHT22;7123;49.468;10.992;2022-11-20T08:14:24;4.20;99.90
14093;DHT22;7123;49.468;10.992;2022-11-20T08:16:50;4.10;99.90
14093;DHT22;7123;49.468;10.992;2022-11-20T08:19:18;4.20;99.90
14093;DHT22;7123;49.468;10.992;2022-11-20T08:21:45;4.20;99.90
14093;DHT22;7123;49.468;10.992;2022-11-20T08:24:12;4.20;99.90
14093;DHT22;7123;49.468;10.992;2022-11-20T08:26:40;4.20;99.90
14093;DHT22;7123;49.468;10.992;2022-11-20T08:29:07;4.20;99.90
14093;DHT22;7123;49.468;10.992;2022-11-20T08:31:34;4.20;99.90
14093;DHT22;7123;49.468;10.992;2022-11-20T08:34:01;4.20;99.90
14093;DHT22;7123;49.468;10.992;2022-11-20T08:36:34;4.20;99.90
14093;DHT22;7123;49.468;10.992;2022-11-20T08:39:02;4.20;99.90
14093;DHT22;7123;49.468;10.992;2022-11-20T08:41:29;4.20;99.90
14093;DHT22;7123;49.468;10.992;2022-11-20T08:44:05;4.30;99.90
14093;DHT22;7123;49.468;10.992;2022-11-20T08:46:40;4.30;99.90
14093;DHT22;7123;49.468;10.992;2022-11-20T08:49:10;4.30;99.90
14093;DHT22;7123;49.468;10.992;2022-11-20T08:51:37;4.30;99.90
14093;DHT22;7123;49.468;10.992;2022-11-20T08:54:05;4.50;99.90
14093;DHT22;7123;49.468;10.992;2022-11-20T08:56:32;4.30;99.90
14093;DHT22;7123;49.468;10.992;2022-11-20T08:58:59;4.30;99.90
14093;DHT22;7123;49.468;10.992;2022-11-20T09:01:46;4.30;99.90
14093;DHT22;7123;49.468;10.992;2022-11-20T09:04:12;4.30;99.90
14093;DHT22;7123;49.468;10.992;2022-11-20T09:06:40;4.30;99.90
14093;DHT22;7123;49.468;10.992;2022-11-20T09:09:07;4.30;99.90
14093;DHT22;7123;49.468;10.992;2022-11-20T09:11:34;4.30;99.90
14093;DHT22;7123;49.468;10.992;2022-11-20T09:14:02;4.30;99.90
14093;DHT22;7123;49.468;10.992;2022-11-20T09:16:31;4.30;99.90
14093;DHT22;7123;49.468;10.992;2022-11-20T09:18:58;4.30;99.90
14093;DHT22;7123;49.468;10.992;2022-11-20T09:21:44;4.30;99.90
14093;DHT22;7123;49.468;10.992;2022-11-20T09:24:11;4.30;99.90
14093;DHT22;7123;49.468;10.992;2022-11-20T09:26:38;4.30;99.90
14093;DHT22;7123;49.468;10.992;2022-11-20T09:29:04;4.30;99.90
14093;DHT22;7123;49.468;10.992;2022-11-20T09:31:32;4.40;99.90
14093;DHT22;7123;49.468;10.992;2022-11-20T09:33:58;4.40;99.90
14093;DHT22;7123;49.468;10.992;2022-11-20T09:36:25;4.40;99.90
14093;DHT22;7123;49.468;10.992;2022-11-20T09:38:52;4.40;99.90
14093;DHT22;7123;49.468;10.992;2022-11-20T09:45:02;4.40;99.90
14093;DHT22;7123;49.468;10.992;2022-11-20T09:50:35;4.40;99.90
14093;DHT22;7123;49.468;10.992;2022-11-20T09:53:46;4.40;99.90
14093;DHT22;7123;49.468;10.992;2022-11-20T09:56:19;4.40;99.90
14093;DHT22;7123;49.468;10.992;2022-11-20T09:58:50;4.40;99.90
14093;DHT22;7123;49.468;10.992;2022-11-20T10:01:20;4.50;99.90
14093;DHT22;7123;49.468;10.992;2022-11-20T10:04:03;4.50;99.90
14093;DHT22;7123;49.468;10.992;2022-11-20T10:09:53;4.50;99.90
14093;DHT22;7123;49.468;10.992;2022-11-20T10:23:25;4.50;99.90
14093;DHT22;7123;49.468;10.992;2022-11-20T10:25:58;4.60;99.90
14093;DHT22;7123;49.468;10.992;2022-11-20T10:28:34;4.60;99.90
14093;DHT22;7123;49.468;10.992;2022-11-20T10:31:08;4.60;99.90
14093;DHT22;7123;49.468;10.992;2022-11-20T10:33:40;4.60;99.90
14093;DHT22;7123;49.468;10.992;2022-11-20T10:36:32;4.60;99.90
14093;DHT22;7123;49.468;10.992;2022-11-20T10:39:26;4.60;99.90
14093;DHT22;7123;49.468;10.992;2022-11-20T10:41:56;4.70;99.90
14093;DHT22;7123;49.468;10.992;2022-11-20T10:44:28;4.70;99.90
14093;DHT22;7123;49.468;10.992;2022-11-20T10:47:20;4.60;99.90
14093;DHT22;7123;49.468;10.992;2022-11-20T10:49:53;4.70;99.90
14093;DHT22;7123;49.468;10.992;2022-11-20T10:55:55;4.70;99.90
14093;DHT22;7123;49.468;10.992;2022-11-20T10:59:02;4.70;99.90
14093;DHT22;7123;49.468;10.992;2022-11-20T11:01:29;4.70;99.90
14093;DHT22;7123;49.468;10.992;2022-11-20T11:03:57;4.80;99.90
14093;DHT22;7123;49.468;10.992;2022-11-20T11:06:43;4.80;99.90
14093;DHT22;7123;49.468;10.992;2022-11-20T11:09:21;4.80;99.90
14093;DHT22;7123;49.468;10.992;2022-11-20T11:11:50;4.90;99.90
14093;DHT22;7123;49.468;10.992;2022-11-20T11:14:17;4.80;99.90
14093;DHT22;7123;49.468;10.992;2022-11-20T11:16:56;4.80;99.90
14093;DHT22;7123;49.468;10.992;2022-11-20T11:19:23;4.80;99.90
14093;DHT22;7123;49.468;10.992;2022-11-20T11:21:55;4.50;99.90
14093;DHT22;7123;49.468;10.992;2022-11-20T11:24:24;3.80;99.90
14093;DHT22;7123;49.468;10.992;2022-11-20T11:27:13;3.50;99.90
14093;DHT22;7123;49.468;10.992;2022-11-20T11:29:44;3.40;99.90
14093;DHT22;7123;49.468;10.992;2022-11-20T11:32:20;3.50;99.90
14093;DHT22;7123;49.468;10.992;2022-11-20T11:35:06;3.60;99.90
14093;DHT22;7123;49.468;10.992;2022-11-20T11:37:35;3.70;99.90
14093;DHT22;7123;49.468;10.992;2022-11-20T11:40:08;3.80;99.90
14093;DHT22;7123;49.468;10.992;2022-11-20T11:42:57;3.90;99.90
14093;DHT22;7123;49.468;10.992;2022-11-20T11:45:26;3.90;99.90
14093;DHT22;7123;49.468;10.992;2022-11-20T11:47:56;4.00;99.90
14093;DHT22;7123;49.468;10.992;2022-11-20T11:50:26;4.10;99.90
14093;DHT22;7123;49.468;10.992;2022-11-20T11:53:16;4.10;99.90
14093;DHT22;7123;49.468;10.992;2022-11-20T11:56:07;4.10;99.90
14093;DHT22;7123;49.468;10.992;2022-11-20T11:58:45;4.20;99.90
14093;DHT22;7123;49.468;10.992;2022-11-20T12:01:38;4.20;99.90
14093;DHT22;7123;49.468;10.992;2022-11-20T12:07:03;4.30;99.90
14093;DHT22;7123;49.468;10.992;2022-11-20T12:09:56;4.30;99.90
14093;DHT22;7123;49.468;10.992;2022-11-20T12:12:36;4.30;99.90
14093;DHT22;7123;49.468;10.992;2022-11-20T12:15:10;4.30;99.90
14093;DHT22;7123;49.468;10.992;2022-11-20T12:17:38;4.20;99.90
14093;DHT22;7123;49.468;10.992;2022-11-20T12:20:12;4.10;99.90
14093;DHT22;7123;49.468;10.992;2022-11-20T12:22:47;4.10;99.90
14093;DHT22;7123;49.468;10.992;2022-11-20T12:25:42;4.10;99.90
14093;DHT22;7123;49.468;10.992;2022-11-20T12:36:32;4.00;99.90
14093;DHT22;7123;49.468;10.992;2022-11-20T12:39:08;4.10;99.90
14093;DHT22;7123;49.468;10.992;2022-11-20T12:41:51;4.10;99.90
14093;DHT22;7123;49.468;10.992;2022-11-20T12:58:52;4.10;99.90
14093;DHT22;7123;49.468;10.992;2022-11-20T13:06:44;4.20;99.90
14093;DHT22;7123;49.468;10.992;2022-11-20T13:09:15;4.20;99.90
14093;DHT22;7123;49.468;10.992;2022-11-20T13:16:46;4.20;99.90
14093;DHT22;7123;49.468;10.992;2022-11-20T13:19:16;4.20;99.90
14093;DHT22;7123;49.468;10.992;2022-11-20T13:21:48;4.20;99.90
14093;DHT22;7123;49.468;10.992;2022-11-20T13:24:24;4.30;99.90
14093;DHT22;7123;49.468;10.992;2022-11-20T13:29:31;4.20;99.90
14093;DHT22;7123;49.468;10.992;2022-11-20T13:32:25;4.10;99.90
14093;DHT22;7123;49.468;10.992;2022-11-20T13:34:54;4.10;99.90
14093;DHT22;7123;49.468;10.992;2022-11-20T13:37:36;4.00;99.90
14093;DHT22;7123;49.468;10.992;2022-11-20T13:45:25;4.10;99.90
14093;DHT22;7123;49.468;10.992;2022-11-20T13:47:53;4.20;99.90
14093;DHT22;7123;49.468;10.992;2022-11-20T13:50:46;4.10;99.90
14093;DHT22;7123;49.468;10.992;2022-11-20T13:56:25;3.90;99.90
14093;DHT22;7123;49.468;10.992;2022-11-20T14:01:43;3.90;99.90
14093;DHT22;7123;49.468;10.992;2022-11-20T14:04:18;3.90;99.90
14093;DHT22;7123;49.468;10.992;2022-11-20T14:06:47;3.90;99.90
14093;DHT22;7123;49.468;10.992;2022-11-20T14:09:30;3.80;99.90
14093;DHT22;7123;49.468;10.992;2022-11-20T14:11:57;3.90;99.90
14093;DHT22;7123;49.468;10.992;2022-11-20T14:14:26;3.90;99.90
14093;DHT22;7123;49.468;10.992;2022-11-20T14:17:17;3.90;99.90
14093;DHT22;7123;49.468;10.992;2022-11-20T14:19:46;4.00;99.90
14093;DHT22;7123;49.468;10.992;2022-11-20T14:22:23;4.10;99.90
14093;DHT22;7123;49.468;10.992;2022-11-20T14:27:40;4.10;99.90
14093;DHT22;7123;49.468;10.992;2022-11-20T14:30:19;4.20;99.90
14093;DHT22;7123;49.468;10.992;2022-11-20T14:32:47;4.10;99.90
14093;DHT22;7123;49.468;10.992;2022-11-20T14:35:31;4.10;99.90
14093;DHT22;7123;49.468;10.992;2022-11-20T14:38:01;4.10;99.90
14093;DHT22;7123;49.468;10.992;2022-11-20T14:40:34;4.10;99.90
14093;DHT22;7123;49.468;10.992;2022-11-20T14:43:28;4.10;99.90
14093;DHT22;7123;49.468;10.992;2022-11-20T14:46:07;4.10;99.90
14093;DHT22;7123;49.468;10.992;2022-11-20T14:48:46;4.10;99.90
14093;DHT22;7123;49.468;10.992;2022-11-20T14:51:36;4.20;99.90
14093;DHT22;7123;49.468;10.992;2022-11-20T14:54:15;4.20;99.90
14093;DHT22;7123;49.468;10.992;2022-11-20T14:56:57;4.20;99.90
14093;DHT22;7123;49.468;10.992;2022-11-20T14:59:26;4.20;99.90
14093;DHT22;7123;49.468;10.992;2022-11-20T15:02:00;4.20;99.90
14093;DHT22;7123;49.468;10.992;2022-11-20T15:04:27;4.20;99.90
14093;DHT22;7123;49.468;10.992;2022-11-20T15:06:56;4.20;99.90
14093;DHT22;7123;49.468;10.992;2022-11-20T15:09:24;4.20;99.90
14093;DHT22;7123;49.468;10.992;2022-11-20T15:11:59;4.20;99.90
14093;DHT22;7123;49.468;10.992;2022-11-20T15:14:29;4.20;99.90
14093;DHT22;7123;49.468;10.992;2022-11-20T15:16:56;4.20;99.90
14093;DHT22;7123;49.468;10.992;2022-11-20T15:19:24;4.20;99.90
14093;DHT22;7123;49.468;10.992;2022-11-20T15:21:51;4.30;99.90
14093;DHT22;7123;49.468;10.992;2022-11-20T15:24:19;4.30;99.90
14093;DHT22;7123;49.468;10.992;2022-11-20T15:26:46;4.30;99.90
14093;DHT22;7123;49.468;10.992;2022-11-20T15:29:15;4.30;99.90
14093;DHT22;7123;49.468;10.992;2022-11-20T15:31:46;4.30;99.90
14093;DHT22;7123;49.468;10.992;2022-11-20T15:34:15;4.30;99.90
14093;DHT22;7123;49.468;10.992;2022-11-20T15:36:42;4.30;99.90
14093;DHT22;7123;49.468;10.992;2022-11-20T15:39:09;4.30;99.90
14093;DHT22;7123;49.468;10.992;2022-11-20T15:41:38;4.30;99.90
14093;DHT22;7123;49.468;10.992;2022-11-20T15:44:05;4.30;99.90
14093;DHT22;7123;49.468;10.992;2022-11-20T15:46:35;4.40;99.90
14093;DHT22;7123;49.468;10.992;2022-11-20T15:49:05;4.40;99.90
14093;DHT22;7123;49.468;10.992;2022-11-20T15:51:37;4.40;99.90
14093;DHT22;7123;49.468;10.992;2022-11-20T15:54:15;4.50;99.90
14093;DHT22;7123;49.468;10.992;2022-11-20T15:56:44;4.60;99.90
14093;DHT22;7123;49.468;10.992;2022-11-20T15:59:11;4.60;99.90
14093;DHT22;7123;49.468;10.992;2022-11-20T16:01:38;4.60;99.90
14093;DHT22;7123;49.468;10.992;2022-11-20T16:04:11;4.60;99.90
14093;DHT22;7123;49.468;10.992;2022-11-20T16:06:38;4.70;99.90
14093;DHT22;7123;49.468;10.992;2022-11-20T16:09:05;4.70;99.90
14093;DHT22;7123;49.468;10.992;2022-11-20T16:11:32;4.70;99.90
14093;DHT22;7123;49.468;10.992;2022-11-20T16:13:59;4.70;99.90
14093;DHT22;7123;49.468;10.992;2022-11-20T16:16:45;4.80;99.90
14093;DHT22;7123;49.468;10.992;2022-11-20T16:19:14;4.80;99.90
14093;DHT22;7123;49.468;10.992;2022-11-20T16:21:42;4.90;99.90
14093;DHT22;7123;49.468;10.992;2022-11-20T16:24:11;4.90;99.90
14093;DHT22;7123;49.468;10.992;2022-11-20T16:26:40;4.90;99.90
14093;DHT22;7123;49.468;10.992;2022-11-20T16:29:07;4.90;99.90
14093;DHT22;7123;49.468;10.992;2022-11-20T16:31:34;4.90;99.90
14093;DHT22;7123;49.468;10.992;2022-11-20T16:34:06;4.90;99.90
14093;DHT22;7123;49.468;10.992;2022-11-20T16:36:42;4.90;99.90
14093;DHT22;7123;49.468;10.992;2022-11-20T16:39:10;4.90;99.90
14093;DHT22;7123;49.468;10.992;2022-11-20T16:41:37;4.90;99.90
14093;DHT22;7123;49.468;10.992;2022-11-20T16:44:09;4.90;99.90
14093;DHT22;7123;49.468;10.992;2022-11-20T16:46:36;4.90;99.90
14093;DHT22;7123;49.468;10.992;2022-11-20T16:49:06;4.90;99.90
14093;DHT22;7123;49.468;10.992;2022-11-20T16:51:36;4.90;99.90
14093;DHT22;7123;49.468;10.992;2022-11-20T16:54:04;4.90;99.90
14093;DHT22;7123;49.468;10.992;2022-11-20T16:56:31;4.90;99.90
14093;DHT22;7123;49.468;10.992;2022-11-20T16:58:59;4.90;99.90
14093;DHT22;7123;49.468;10.992;2022-11-20T17:01:27;4.90;99.90
14093;DHT22;7123;49.468;10.992;2022-11-20T17:04:03;5.00;99.90
14093;DHT22;7123;49.468;10.992;2022-11-20T17:06:34;5.00;99.90
14093;DHT22;7123;49.468;10.992;2022-11-20T17:09:02;5.00;99.90
14093;DHT22;7123;49.468;10.992;2022-11-20T17:11:29;4.90;99.90
14093;DHT22;7123;49.468;10.992;2022-11-20T17:13:57;4.90;99.90
14093;DHT22;7123;49.468;10.992;2022-11-20T17:16:25;4.90;99.90
14093;DHT22;7123;49.468;10.992;2022-11-20T17:18:54;4.90;99.90
14093;DHT22;7123;49.468;10.992;2022-11-20T17:21:28;4.90;99.90
14093;DHT22;7123;49.468;10.992;2022-11-20T17:24:02;4.80;99.90
14093;DHT22;7123;49.468;10.992;2022-11-20T17:26:30;4.80;99.90
14093;DHT22;7123;49.468;10.992;2022-11-20T17:29:02;4.80;99.90
14093;DHT22;7123;49.468;10.992;2022-11-20T17:31:30;4.70;99.90